Matamoros, México

12:09 AM EST en Septiembre 28, 2016 (GMT -0500)
West Brownsville | | Change Station

Alt 35 ft 25.92 °N, 97.52 °W | Updated 12 minutes ago

Light Rain
Lluvia débil
73.6 ° F
Sensación térmica 71 ° F
N
2.0
Viento Variable Viento desde ONO
Gusts 12.0 mph

Hoy
Alta -- | Baja -- ° F
--% Posibilidad de precipitaciones
Ayer
Alta -- | Baja -- ° F
Precip. -- pul
Presión 29.99 pul
Visibilidad 10.0 Millas
Nubes Baja 2300 ft
Nubes dispersas 2800 ft
Nublado 3600 ft
Índice de calor 71 ° F
Punto de rocío 71 ° F
Humedad 91%
Precipitaciones pul
Espesor de la nieve No disponible.
7:21 AM 7:19 PM
Creciente menguante, 7% visible
METAR KBRO 280453Z AUTO 31009KT 10SM -RA FEW023 SCT028 OVC036 24/21 A2999 RMK AO2 RAB46 SLP153 P0001 T02390211
Presión 29.99 pul
Visibilidad 10.0 Millas
Nubes Baja 2300 ft
Nubes dispersas 2800 ft
Nublado 3600 ft
Índice de calor 71 ° F
Punto de rocío 71 ° F
Humedad 91%
Precipitaciones pul
Espesor de la nieve No disponible.
7:21 AM 7:19 PM
Creciente menguante, 7% visible
METAR KBRO 280453Z AUTO 31009KT 10SM -RA FEW023 SCT028 OVC036 24/21 A2999 RMK AO2 RAB46 SLP153 P0001 T02390211

10-Day Weather Forecast

Almanac

Astronomía

Sep. 28, 2016 Salida Puesta
Hora real
Crepúsculo civil
Crepúsculo náutico
Crepúsculo astronómico
Luna
Horas de luz
Horas de luz
Tomorrow will be .
, % of the Moon is Illuminated

Extremos de hoy

Máximos del país Bajas del país

Community

WunderPhotos

Upload Photos

1,942,213 ¡fotos cargadas!

WunderBlog® & News

Nearby

Calidad del aire

  Calidad del aire Índice AQ Contaminante
Not available.

Grosos de nieve

Estación Profundido Altura

Actividad de terremotos

Ciudad Distance Mag. Tiempo y dato
Magnitud mínima muestra es 2,5.

Temperaturas de aguas costeras

Lugar Temperatura

Stations

Estaciones meteorológicas cercanas

Ubicación de la estación Temp. Vientos helados Punto de rocío Humedad Viento Precip. Alt Actualizado Tipo